createdAt,value
2018-01-02T01:45:22.992Z,89.45
2018-01-02T02:56:17.175Z,90.32
2018-01-02T02:58:57.822Z,90.45
2018-01-02T03:01:31.464Z,90.50
2018-01-02T03:04:01.764Z,90.45
2018-01-02T03:06:40.703Z,90.40
2018-01-02T03:09:37.964Z,90.76
2018-01-02T03:15:03.282Z,91.06
2018-01-02T03:17:50.571Z,91.34
2018-01-02T03:20:23.031Z,91.51
2018-01-02T03:23:05.969Z,91.64
2018-01-02T03:28:35.958Z,91.93
2018-01-02T03:33:41.410Z,91.96
2018-01-02T03:50:57.068Z,91.27
2018-01-02T03:53:47.397Z,91.38
2018-01-02T03:56:29.186Z,91.56
2018-01-02T04:05:00.852Z,91.64
2018-01-02T04:43:45.865Z,92.66
2018-01-02T05:02:02.832Z,93.02
2018-01-02T05:26:07.209Z,92.98
2018-01-02T08:57:56.214Z,92.47
2018-01-02T09:00:23.902Z,92.29
2018-01-02T09:03:03.071Z,92.13
2018-01-02T09:05:32.229Z,92.17
2018-01-02T09:08:00.111Z,92.34
2018-01-02T09:10:34.057Z,92.45
2018-01-02T10:25:56.367Z,91.55
2018-01-02T10:37:31.350Z,90.49
2018-01-02T10:40:00.821Z,89.61
2018-01-02T10:45:21.993Z,88.66
2018-01-02T12:29:25.579Z,82.51
2018-01-02T12:32:12.347Z,82.61
2018-01-02T12:49:54.208Z,81.81
2018-01-02T13:16:59.225Z,84.35
2018-01-02T13:19:39.547Z,84.21
2018-01-02T13:22:18.745Z,84.34
2018-01-02T14:22:39.537Z,84.56
2018-01-02T14:25:07.332Z,84.38
2018-01-02T14:27:36.542Z,84.69
2018-01-02T14:30:07.889Z,84.64
2018-01-02T14:32:35.614Z,84.77
2018-01-02T14:35:03.389Z,84.47
2018-01-02T14:37:34.069Z,84.30
2018-01-02T14:40:05.078Z,84.27
2018-01-02T14:42:33.349Z,84.32
2018-01-02T14:45:02.326Z,84.16
2018-01-02T14:47:30.096Z,84.32
2018-01-02T14:49:57.833Z,83.90
2018-01-02T14:52:25.543Z,83.36
2018-01-02T14:54:54.727Z,82.96
2018-01-02T14:57:23.111Z,83.26
2018-01-02T14:59:50.760Z,83.16
2018-01-02T15:02:18.399Z,83.18
2018-01-02T15:04:46.134Z,83.48
2018-01-02T15:07:13.777Z,83.25
2018-01-02T15:09:41.491Z,83.55
2018-01-02T15:12:10.395Z,83.91
2018-01-02T15:14:38.145Z,84.06
2018-01-02T15:17:06.218Z,84.41
2018-01-02T15:19:35.226Z,84.46
2018-01-02T15:22:05.686Z,84.65
2018-01-02T15:24:33.437Z,84.65
2018-01-02T15:27:01.117Z,84.66
2018-01-02T15:29:28.877Z,84.56
2018-01-02T15:31:56.635Z,84.66
2018-01-02T15:34:24.258Z,84.71
2018-01-02T15:36:51.999Z,84.63
2018-01-02T15:39:19.841Z,84.52
2018-01-02T15:41:47.533Z,84.44
2018-01-02T15:44:15.483Z,84.69
2018-01-02T15:46:43.093Z,85.03
2018-01-02T15:49:11.262Z,85.51
2018-01-02T15:51:39.014Z,85.75
2018-01-02T15:54:06.817Z,85.75
2018-01-02T15:56:34.533Z,85.97
2018-01-02T15:59:02.254Z,85.96
2018-01-02T16:01:30.500Z,86.16
2018-01-02T16:03:58.677Z,86.09
2018-01-02T16:06:26.408Z,86.07
2018-01-02T16:08:54.704Z,86.18
2018-01-02T16:11:22.363Z,86.19
2018-01-02T16:13:51.674Z,86.35
2018-01-02T16:16:19.841Z,86.35
2018-01-02T16:18:54.557Z,86.40
2018-01-02T16:21:22.284Z,86.45
2018-01-02T16:23:52.959Z,86.49
2018-01-02T16:26:21.856Z,86.45
2018-01-02T16:28:49.829Z,86.42
2018-01-02T16:31:17.559Z,86.52
2018-01-02T16:33:45.259Z,86.58
2018-01-02T16:36:14.431Z,86.73
2018-01-02T16:38:46.997Z,86.67
2018-01-02T16:41:22.773Z,86.71
2018-01-02T16:43:51.754Z,86.77
2018-01-02T16:46:24.146Z,86.89
2018-01-02T16:48:53.550Z,87.05
2018-01-02T16:51:23.556Z,87.49
2018-01-02T16:53:51.671Z,87.80
2018-01-02T17:07:32.958Z,87.82
2018-01-02T18:07:47.099Z,87.96
2018-01-02T18:12:58.718Z,87.48
2018-01-02T18:15:26.825Z,87.36
2018-01-02T18:17:54.726Z,87.23
2018-01-02T18:20:23.721Z,87.17
2018-01-02T18:23:17.355Z,87.22
2018-01-02T18:28:35.815Z,86.77
2018-01-02T18:37:55.022Z,86.60
2018-01-02T18:40:27.055Z,86.78
2018-01-02T18:45:44.964Z,86.15
2018-01-02T18:48:18.512Z,85.56
2018-01-02T18:50:53.867Z,85.54
2018-01-02T18:53:28.492Z,85.58
2018-01-02T18:55:56.245Z,85.31
2018-01-02T18:58:24.047Z,85.45
2018-01-02T19:00:52.002Z,85.54
2018-01-02T19:03:19.778Z,85.60
2018-01-02T19:05:56.248Z,85.44
2018-01-02T19:08:37.422Z,85.76
2018-01-02T19:11:06.797Z,85.78
2018-01-02T19:13:37.688Z,85.95
2018-01-02T19:16:07.774Z,86.39
2018-01-02T19:21:51.660Z,86.91
2018-01-02T19:24:20.469Z,87.09
2018-01-02T19:26:48.324Z,87.30
2018-01-02T19:29:16.075Z,86.96
2018-01-02T19:31:47.719Z,86.94
2018-01-02T19:34:18.147Z,87.14
2018-01-02T19:36:46.346Z,87.14
2018-01-02T19:39:36.281Z,86.94
2018-01-02T21:17:42.964Z,93.97
2018-01-02T21:20:11.475Z,94.28
2018-01-02T21:22:40.461Z,94.38
2018-01-02T21:25:09.207Z,94.44
2018-01-02T21:27:37.900Z,94.37
2018-01-02T21:30:05.616Z,94.29
2018-01-02T21:32:35.116Z,94.33
2018-01-02T21:35:06.609Z,94.12
2018-01-02T21:37:34.907Z,93.90
2018-01-02T21:40:02.667Z,93.75
2018-01-02T21:42:31.785Z,93.85
